Terminal Aerodrome Forecast
Issued by NWS

Home | Current Version | Previous Version | Text Only | Print | Product List | Glossary On
Versions: 1 2 3 4 5 6 7 8 9 10 11 12 13 14 15 16 17
000
FTUS43 KDVN 250500
TAFBRL
TAF
KBRL 250536Z 2506/2606 28009KT P6SM OVC018
     FM251000 24011KT P6SM OVC008
     FM251500 19013KT P6SM SCT015 BKN250
     FM252200 16008KT P6SM BKN200=

USA.gov is the U.S. government's official web portal to all federal, state and local government web resources and services.